Wetterstation Vordersexau
Wetterdaten: Woche 25.04.16 - 01.05.16 (KW17)
Datum Zeit Temp. A. Feuchte A. Luftdruck Regen Wind Richtung Taupunkt Windchill Windben
25.04.2016 00:00 2,8 C 86 % 1012,9 hPa 0,0 l/m 0,0 km/h SO 0,7 C 2,8 C 0,0 km/h
25.04.2016 01:00 2,8 C 86 % 1012,8 hPa 0,4 l/m 0,0 km/h W 0,7 C 2,8 C 0,0 km/h
25.04.2016 02:00 2,5 C 86 % 1012,7 hPa 0,4 l/m 0,0 km/h W 0,4 C 2,5 C 0,0 km/h
25.04.2016 03:00 2,6 C 86 % 1012,8 hPa 0,0 l/m 0,0 km/h W 0,5 C 2,6 C 0,0 km/h
25.04.2016 04:00 2,5 C 87 % 1012,8 hPa 0,0 l/m 0,0 km/h W 0,6 C 2,5 C 0,0 km/h
25.04.2016 05:00 2,3 C 87 % 1012,8 hPa 0,0 l/m 0,0 km/h W 0,4 C 2,3 C 0,0 km/h
25.04.2016 06:00 2,4 C 87 % 1013,1 hPa 0,0 l/m 0,0 km/h W 0,5 C 2,4 C 0,0 km/h
25.04.2016 07:00 3,1 C 87 % 1013,5 hPa 0,0 l/m 0,0 km/h W 1,2 C 3,1 C 0,0 km/h
25.04.2016 08:00 4,1 C 87 % 1013,6 hPa 0,0 l/m 0,0 km/h W-NW 2,1 C 4,1 C 0,0 km/h
25.04.2016 09:00 5,3 C 85 % 1013,4 hPa 0,0 l/m 0,0 km/h W 3,0 C 5,3 C 0,0 km/h
25.04.2016 10:00 7,3 C 79 % 1013,2 hPa 0,0 l/m 9,1 km/h W-SW 3,9 C 5,2 C 5,0 km/h
25.04.2016 11:00 8,6 C 72 % 1012,9 hPa 0,0 l/m 0,0 km/h W-NW 3,8 C 8,6 C 0,0 km/h
25.04.2016 12:00 7,5 C 69 % 1012,1 hPa 0,0 l/m 21,4 km/h W 2,2 C -0,4 C 11,9 km/h
25.04.2016 13:00 6,9 C 70 % 1012,0 hPa 0,0 l/m 12,3 km/h W-NW 1,8 C 2,8 C 6,8 km/h
25.04.2016 14:00 7,6 C 67 % 1011,4 hPa 0,0 l/m 29,8 km/h W-SW 1,9 C -2,7 C 16,6 km/h
25.04.2016 15:00 7,9 C 67 % 1010,7 hPa 0,0 l/m 16,8 km/h SW 2,2 C 1,8 C 9,4 km/h
25.04.2016 16:00 6,4 C 73 % 1010,2 hPa 0,0 l/m 7,8 km/h S 1,9 C 5,2 C 4,3 km/h
25.04.2016 17:00 5,3 C 81 % 1009,6 hPa 0,0 l/m 14,9 km/h W 2,3 C -0,5 C 8,3 km/h
25.04.2016 18:00 5,9 C 77 % 1009,2 hPa 0,0 l/m 19,4 km/h W-SW 2,2 C -1,8 C 10,8 km/h
25.04.2016 19:00 5,9 C 78 % 1008,7 hPa 0,0 l/m 18,1 km/h W 2,4 C -1,2 C 10,1 km/h
25.04.2016 20:00 5,4 C 81 % 1008,2 hPa 0,0 l/m 2,6 km/h SW 2,4 C 5,4 C 1,4 km/h
25.04.2016 21:00 5,1 C 82 % 1008,0 hPa 0,0 l/m 22,7 km/h S 2,3 C -4,0 C 12,6 km/h
25.04.2016 22:00 5,3 C 83 % 1007,3 hPa 0,0 l/m 0,0 km/h SW 2,7 C 5,3 C 0,0 km/h
25.04.2016 23:00 5,9 C 78 % 1006,2 hPa 0,0 l/m 19,4 km/h W-SW 2,4 C -1,8 C 10,8 km/h
26.04.2016 00:00 6,5 C 74 % 1005,5 hPa 0,0 l/m 14,9 km/h SW 2,2 C 0,9 C 8,3 km/h
26.04.2016 01:00 7,0 C 71 % 1004,8 hPa 0,0 l/m 6,5 km/h W-SW 2,1 C 6,9 C 3,6 km/h
26.04.2016 02:00 6,9 C 71 % 1003,9 hPa 0,0 l/m 24,0 km/h W 2,0 C -2,1 C 13,3 km/h
26.04.2016 03:00 6,6 C 75 % 1003,5 hPa 0,0 l/m 15,6 km/h SW 2,5 C 0,7 C 8,6 km/h
26.04.2016 04:00 6,4 C 77 % 1003,1 hPa 0,0 l/m 16,8 km/h W 2,7 C -0,1 C 9,4 km/h
26.04.2016 05:00 6,2 C 81 % 1002,7 hPa 0,4 l/m 18,8 km/h W 3,2 C -1,2 C 10,4 km/h
26.04.2016 06:00 6,1 C 81 % 1002,5 hPa 0,0 l/m 37,6 km/h W-SW 3,1 C -6,5 C 20,9 km/h
26.04.2016 07:00 6,1 C 81 % 1002,6 hPa 0,0 l/m 20,7 km/h SW 3,1 C -2,0 C 11,5 km/h
26.04.2016 08:00 6,1 C 82 % 1002,6 hPa 0,0 l/m 16,2 km/h W-SW 3,3 C -0,2 C 9,0 km/h
26.04.2016 09:00 6,9 C 82 % 1002,4 hPa 0,0 l/m 30,5 km/h N 4,0 C -3,8 C 16,9 km/h
26.04.2016 10:00 4,5 C 81 % 1003,0 hPa 0,0 l/m 0,0 km/h SO 1,5 C 4,5 C 0,0 km/h
26.04.2016 11:00 2,9 C 84 % 1003,6 hPa 1,2 l/m 0,0 km/h S-SO 0,5 C 2,9 C 0,0 km/h
26.04.2016 12:00 2,9 C 86 % 1003,7 hPa 2,5 l/m 0,0 km/h SO 0,8 C 2,9 C 0,0 km/h
26.04.2016 13:00 4,2 C 86 % 1003,8 hPa 0,0 l/m 0,0 km/h S-SO 2,1 C 4,2 C 0,0 km/h
26.04.2016 14:00 6,7 C 85 % 1003,7 hPa 0,0 l/m 9,7 km/h S-SO 4,4 C 4,2 C 5,4 km/h
26.04.2016 15:00 5,4 C 85 % 1003,8 hPa 0,4 l/m 0,0 km/h S 3,1 C 5,4 C 0,0 km/h
26.04.2016 16:00 4,8 C 85 % 1003,3 hPa 0,0 l/m 12,3 km/h SO 2,5 C 0,3 C 6,8 km/h
26.04.2016 17:00 4,7 C 86 % 1003,4 hPa 0,4 l/m 0,0 km/h S-SO 2,6 C 4,7 C 0,0 km/h
26.04.2016 18:00 3,6 C 87 % 1003,4 hPa 0,4 l/m 0,0 km/h N-NO 1,6 C 3,6 C 0,0 km/h
26.04.2016 19:00 3,4 C 87 % 1003,5 hPa 2,1 l/m 0,0 km/h SO 1,4 C 3,4 C 0,0 km/h
26.04.2016 20:00 2,2 C 87 % 1004,0 hPa 1,2 l/m 0,0 km/h SO 0,3 C 2,2 C 0,0 km/h
26.04.2016 21:00 1,9 C 87 % 1004,8 hPa 0,4 l/m 0,0 km/h SO -0,0 C 1,9 C 0,0 km/h
26.04.2016 22:00 2,3 C 86 % 1005,0 hPa 0,0 l/m 0,0 km/h W 0,2 C 2,3 C 0,0 km/h
26.04.2016 23:00 2,7 C 86 % 1005,1 hPa 1,7 l/m 5,2 km/h W-NW 0,6 C 2,7 C 2,9 km/h
27.04.2016 00:00 3,0 C 85 % 1005,9 hPa 0,4 l/m 0,0 km/h SW 0,7 C 3,0 C 0,0 km/h
27.04.2016 01:00 2,3 C 86 % 1006,2 hPa 0,0 l/m 0,0 km/h W 0,2 C 2,3 C 0,0 km/h
27.04.2016 02:00 2,7 C 84 % 1006,3 hPa 0,0 l/m 7,1 km/h SW 0,3 C 2,0 C 4,0 km/h
27.04.2016 03:00 2,4 C 85 % 1007,3 hPa 0,0 l/m 3,9 km/h S-SW 0,1 C 2,4 C 2,2 km/h
27.04.2016 04:00 2,3 C 86 % 1007,8 hPa 0,0 l/m 24,0 km/h W 0,2 C -8,2 C 13,3 km/h
27.04.2016 05:00 2,0 C 87 % 1008,5 hPa 0,0 l/m 2,6 km/h W 0,1 C 2,0 C 1,4 km/h
27.04.2016 06:00 2,1 C 87 % 1009,1 hPa 0,0 l/m 0,0 km/h SW 0,2 C 2,1 C 0,0 km/h
27.04.2016 07:00 2,7 C 87 % 1009,3 hPa 0,0 l/m 17,5 km/h W 0,8 C -5,0 C 9,7 km/h
27.04.2016 08:00 5,3 C 86 % 1009,3 hPa 0,0 l/m 5,8 km/h W-NW 3,2 C 5,3 C 3,2 km/h
27.04.2016 09:00 8,0 C 70 % 1009,3 hPa 0,0 l/m 19,4 km/h W 2,9 C 0,9 C 10,8 km/h
27.04.2016 10:00 6,8 C 70 % 1009,6 hPa 0,0 l/m 22,0 km/h SW 1,7 C -1,6 C 12,2 km/h
27.04.2016 11:00 9,3 C 69 % 1009,7 hPa 0,0 l/m 15,6 km/h SW 3,9 C 4,0 C 8,6 km/h
27.04.2016 12:00 7,4 C 65 % 1009,9 hPa 0,0 l/m 9,7 km/h W-NW 1,3 C 4,9 C 5,4 km/h
27.04.2016 13:00 10,6 C 55 % 1010,0 hPa 0,0 l/m 21,4 km/h W-SW 1,9 C 3,6 C 11,9 km/h
27.04.2016 14:00 12,1 C 55 % 1010,2 hPa 0,0 l/m 23,3 km/h W-NW 3,3 C 5,1 C 13,0 km/h
27.04.2016 15:00 13,4 C 50 % 1010,1 hPa 0,0 l/m 14,9 km/h W 3,2 C 9,3 C 8,3 km/h
27.04.2016 16:00 12,1 C 53 % 1010,6 hPa 0,0 l/m 18,1 km/h S-SW 2,8 C 6,6 C 10,1 km/h
27.04.2016 17:00 11,1 C 55 % 1010,5 hPa 0,0 l/m 3,2 km/h W 2,4 C 11,1 C 1,8 km/h
27.04.2016 18:00 9,9 C 53 % 1010,4 hPa 0,0 l/m 16,8 km/h W 0,8 C 4,3 C 9,4 km/h
27.04.2016 19:00 9,1 C 59 % 1010,8 hPa 0,0 l/m 19,4 km/h W 1,5 C 2,3 C 10,8 km/h
27.04.2016 20:00 6,3 C 67 % 1011,3 hPa 0,0 l/m 0,0 km/h W 0,6 C 6,3 C 0,0 km/h
27.04.2016 21:00 3,9 C 72 % 1011,7 hPa 0,0 l/m 0,0 km/h NO -0,7 C 3,9 C 0,0 km/h
27.04.2016 22:00 3,2 C 76 % 1012,1 hPa 0,0 l/m 0,0 km/h O-SO -0,6 C 3,2 C 0,0 km/h
27.04.2016 23:00 1,5 C 81 % 1011,9 hPa 0,0 l/m 0,0 km/h O-SO -1,4 C 1,5 C 0,0 km/h
28.04.2016 00:00 0,8 C 83 % 1011,7 hPa 0,0 l/m 0,0 km/h O-SO -1,8 C 0,8 C 0,0 km/h
28.04.2016 01:00 0,1 C 84 % 1011,9 hPa 0,0 l/m 0,0 km/h O-SO -2,3 C 0,1 C 0,0 km/h
28.04.2016 02:00 -0,7 C 85 % 1011,6 hPa 0,0 l/m 0,0 km/h O-SO -2,9 C -0,7 C 0,0 km/h
28.04.2016 03:00 -1,4 C 86 % 1011,5 hPa 0,0 l/m 0,0 km/h SO -3,4 C -1,4 C 0,0 km/h
28.04.2016 04:00 -1,1 C 86 % 1011,9 hPa 0,0 l/m 0,0 km/h SO -3,1 C -1,1 C 0,0 km/h
28.04.2016 05:00 -0,4 C 87 % 1012,1 hPa 0,0 l/m 0,0 km/h SO -2,3 C -0,4 C 0,0 km/h
28.04.2016 06:00 0,3 C 87 % 1012,2 hPa 0,0 l/m 0,0 km/h SO -1,6 C 0,3 C 0,0 km/h
28.04.2016 07:00 2,4 C 86 % 1012,8 hPa 0,0 l/m 2,6 km/h N-NO 0,3 C 2,4 C 1,4 km/h
28.04.2016 08:00 5,4 C 84 % 1013,4 hPa 0,0 l/m 0,0 km/h NO 2,9 C 5,4 C 0,0 km/h
28.04.2016 09:00 9,8 C 71 % 1013,3 hPa 0,0 l/m 0,0 km/h N-NW 4,8 C 9,8 C 0,0 km/h
28.04.2016 10:00 8,5 C 74 % 1014,3 hPa 0,0 l/m 0,0 km/h N 4,1 C 8,5 C 0,0 km/h
28.04.2016 11:00 11,8 C 59 % 1014,0 hPa 0,0 l/m 0,0 km/h N-NW 4,1 C 11,8 C 0,0 km/h
28.04.2016 12:00 9,2 C 63 % 1014,1 hPa 0,0 l/m 0,0 km/h W-SW 2,5 C 9,2 C 0,0 km/h
28.04.2016 13:00 10,8 C 63 % 1014,1 hPa 0,0 l/m 1,9 km/h S 4,0 C 10,8 C 1,1 km/h
28.04.2016 14:00 13,8 C 57 % 1013,8 hPa 0,0 l/m 9,7 km/h NW 5,4 C 11,9 C 5,4 km/h
28.04.2016 15:00 14,1 C 49 % 1013,8 hPa 0,0 l/m 17,5 km/h O-SO 3,6 C 9,3 C 9,7 km/h
28.04.2016 16:00 11,5 C 65 % 1014,0 hPa 0,0 l/m 0,0 km/h O-SO 5,2 C 11,5 C 0,0 km/h
28.04.2016 17:00 11,9 C 56 % 1014,0 hPa 0,0 l/m 0,0 km/h SO 3,4 C 11,9 C 0,0 km/h
28.04.2016 18:00 18,8 C 43 % 1014,0 hPa 0,0 l/m 0,0 km/h NO 6,0 C 18,8 C 0,0 km/h
28.04.2016 19:00 13,9 C 43 % 1014,1 hPa 0,0 l/m 0,0 km/h O-SO 1,5 C 13,9 C 0,0 km/h
28.04.2016 20:00 5,9 C 67 % 1014,5 hPa 0,0 l/m 0,0 km/h O-SO 0,3 C 5,9 C 0,0 km/h
28.04.2016 21:00 3,6 C 75 % 1014,9 hPa 0,0 l/m 0,0 km/h SO -0,4 C 3,6 C 0,0 km/h
28.04.2016 22:00 2,9 C 80 % 1015,0 hPa 0,0 l/m 0,0 km/h SO -0,2 C 2,9 C 0,0 km/h
28.04.2016 23:00 2,3 C 83 % 1015,2 hPa 0,0 l/m 1,9 km/h SO -0,3 C 2,3 C 1,1 km/h
29.04.2016 00:00 1,8 C 84 % 1015,4 hPa 0,0 l/m 0,0 km/h SO -0,6 C 1,8 C 0,0 km/h
29.04.2016 01:00 1,0 C 85 % 1015,2 hPa 0,0 l/m 0,0 km/h SO -1,2 C 1,0 C 0,0 km/h
29.04.2016 02:00 0,5 C 86 % 1015,2 hPa 0,0 l/m 1,3 km/h SO -1,6 C 0,5 C 0,7 km/h
29.04.2016 03:00 0,2 C 87 % 1015,4 hPa 0,0 l/m 0,0 km/h SO -1,7 C 0,2 C 0,0 km/h
29.04.2016 04:00 0,6 C 87 % 1015,4 hPa 0,0 l/m 2,6 km/h SO -1,3 C 0,6 C 1,4 km/h
29.04.2016 05:00 0,8 C 87 % 1015,5 hPa 0,0 l/m 0,0 km/h SO -1,1 C 0,8 C 0,0 km/h
29.04.2016 06:00 0,3 C 87 % 1015,8 hPa 0,0 l/m 0,0 km/h SO -1,6 C 0,3 C 0,0 km/h
29.04.2016 07:00 1,8 C 86 % 1016,3 hPa 0,0 l/m 0,0 km/h O-SO -0,3 C 1,8 C 0,0 km/h
29.04.2016 08:00 9,5 C 81 % 1016,2 hPa 0,0 l/m 0,0 km/h S-SO 6,4 C 9,5 C 0,0 km/h
29.04.2016 09:00 11,2 C 70 % 1016,4 hPa 0,0 l/m 0,0 km/h W 5,9 C 11,2 C 0,0 km/h
29.04.2016 10:00 16,8 C 52 % 1016,4 hPa 0,0 l/m 0,0 km/h W-NW 6,9 C 16,8 C 0,0 km/h
29.04.2016 11:00 16,4 C 47 % 1015,9 hPa 0,0 l/m 3,2 km/h W 5,1 C 16,4 C 1,8 km/h
29.04.2016 12:00 16,1 C 45 % 1015,7 hPa 0,0 l/m 1,3 km/h W-SW 4,2 C 16,1 C 0,7 km/h
29.04.2016 13:00 16,3 C 44 % 1015,1 hPa 0,0 l/m 11,0 km/h W 4,0 C 14,1 C 6,1 km/h
29.04.2016 14:00 17,5 C 41 % 1015,0 hPa 0,0 l/m 1,9 km/h SW 4,1 C 17,5 C 1,1 km/h
29.04.2016 15:00 18,4 C 41 % 1014,5 hPa 0,0 l/m 11,7 km/h W-NW 4,9 C 16,3 C 6,5 km/h
29.04.2016 16:00 19,6 C 36 % 1014,0 hPa 0,0 l/m 21,4 km/h W 4,1 C 15,4 C 11,9 km/h
29.04.2016 17:00 21,2 C 34 % 1013,7 hPa 0,0 l/m 20,7 km/h W 4,7 C 17,6 C 11,5 km/h
29.04.2016 18:00 20,2 C 35 % 1013,6 hPa 0,0 l/m 8,4 km/h W-NW 4,2 C 19,4 C 4,7 km/h
29.04.2016 19:00 15,3 C 43 % 1013,7 hPa 0,0 l/m 0,0 km/h W-NW 2,8 C 15,3 C 0,0 km/h
29.04.2016 20:00 10,2 C 58 % 1013,9 hPa 0,0 l/m 0,0 km/h S 2,3 C 10,2 C 0,0 km/h
29.04.2016 21:00 7,9 C 65 % 1014,2 hPa 0,0 l/m 0,0 km/h S 1,7 C 7,9 C 0,0 km/h
29.04.2016 22:00 6,1 C 73 % 1014,5 hPa 0,0 l/m 0,0 km/h SO 1,6 C 6,1 C 0,0 km/h
29.04.2016 23:00 5,2 C 76 % 1014,6 hPa 0,0 l/m 0,0 km/h SO 1,3 C 5,2 C 0,0 km/h
30.04.2016 00:00 4,1 C 79 % 1014,8 hPa 0,0 l/m 0,0 km/h O-SO 0,8 C 4,1 C 0,0 km/h
30.04.2016 01:00 3,7 C 81 % 1014,5 hPa 0,0 l/m 0,0 km/h SO 0,7 C 3,7 C 0,0 km/h
30.04.2016 02:00 4,1 C 82 % 1014,3 hPa 0,0 l/m 0,0 km/h SO 1,3 C 4,1 C 0,0 km/h
30.04.2016 03:00 3,4 C 83 % 1014,3 hPa 0,0 l/m 0,0 km/h O 0,8 C 3,4 C 0,0 km/h
30.04.2016 04:00 2,4 C 84 % 1014,2 hPa 0,0 l/m 0,0 km/h O-NO -0,0 C 2,4 C 0,0 km/h
30.04.2016 05:00 1,6 C 84 % 1014,1 hPa 0,0 l/m 0,0 km/h SO -0,8 C 1,6 C 0,0 km/h
30.04.2016 06:00 2,5 C 86 % 1014,3 hPa 0,0 l/m 1,3 km/h SO 0,4 C 2,5 C 0,7 km/h
30.04.2016 07:00 4,5 C 85 % 1014,1 hPa 0,0 l/m 1,9 km/h NO 2,2 C 4,5 C 1,1 km/h
30.04.2016 08:00 9,4 C 78 % 1014,0 hPa 0,0 l/m 0,0 km/h N-NO 5,8 C 9,4 C 0,0 km/h
30.04.2016 09:00 14,7 C 58 % 1014,0 hPa 0,0 l/m 0,0 km/h W-NW 6,5 C 14,7 C 0,0 km/h
30.04.2016 10:00 17,4 C 48 % 1013,4 hPa 0,0 l/m 0,0 km/h W-NW 6,3 C 17,4 C 0,0 km/h
30.04.2016 11:00 16,3 C 52 % 1012,7 hPa 0,0 l/m 14,3 km/h W-NW 6,4 C 13,0 C 7,9 km/h
30.04.2016 12:00 17,9 C 52 % 1012,2 hPa 0,0 l/m 4,5 km/h W-NW 7,9 C 17,9 C 2,5 km/h
30.04.2016 13:00 19,3 C 49 % 1011,4 hPa 0,0 l/m 11,0 km/h N-NO 8,3 C 17,5 C 6,1 km/h
30.04.2016 14:00 21,9 C 37 % 1010,8 hPa 0,0 l/m 7,1 km/h W 6,5 C 21,7 C 4,0 km/h
30.04.2016 15:00 20,8 C 38 % 1010,1 hPa 0,0 l/m 1,9 km/h NW 6,0 C 20,8 C 1,1 km/h
30.04.2016 16:00 17,9 C 44 % 1010,1 hPa 0,0 l/m 0,0 km/h N-NW 5,5 C 17,9 C 0,0 km/h
30.04.2016 17:00 15,6 C 50 % 1010,9 hPa 0,0 l/m 7,8 km/h W-NW 5,2 C 14,8 C 4,3 km/h
30.04.2016 18:00 11,9 C 66 % 1012,5 hPa 0,0 l/m 11,0 km/h W-NW 5,8 C 9,2 C 6,1 km/h
30.04.2016 19:00 9,9 C 79 % 1012,9 hPa 0,4 l/m 0,0 km/h NW 6,4 C 9,9 C 0,0 km/h
30.04.2016 20:00 8,9 C 82 % 1013,3 hPa 0,4 l/m 0,0 km/h S 6,0 C 8,9 C 0,0 km/h
30.04.2016 21:00 8,2 C 84 % 1013,2 hPa 3,7 l/m 0,0 km/h S 5,7 C 8,2 C 0,0 km/h
30.04.2016 22:00 8,2 C 84 % 1013,4 hPa 2,5 l/m 0,0 km/h S 5,7 C 8,2 C 0,0 km/h
30.04.2016 23:00 7,5 C 85 % 1013,2 hPa 1,2 l/m 0,0 km/h S 5,1 C 7,5 C 0,0 km/h
01.05.2016 00:00 7,2 C 85 % 1013,2 hPa 0,4 l/m 0,0 km/h S 4,9 C 7,2 C 0,0 km/h
01.05.2016 01:00 6,8 C 86 % 1013,2 hPa 0,8 l/m 0,0 km/h W-NW 4,6 C 6,8 C 0,0 km/h
01.05.2016 02:00 6,3 C 86 % 1013,2 hPa 2,1 l/m 1,9 km/h N-NW 4,1 C 6,3 C 1,1 km/h
01.05.2016 03:00 5,6 C 86 % 1013,6 hPa 1,2 l/m 0,0 km/h NW 3,4 C 5,6 C 0,0 km/h
01.05.2016 04:00 5,8 C 86 % 1013,7 hPa 0,4 l/m 1,3 km/h W-NW 3,6 C 5,8 C 0,7 km/h
01.05.2016 05:00 5,6 C 85 % 1013,4 hPa 0,4 l/m 0,0 km/h N-NO 3,3 C 5,6 C 0,0 km/h
01.05.2016 06:00 6,1 C 85 % 1013,7 hPa 0,4 l/m 0,0 km/h N-NO 3,8 C 6,1 C 0,0 km/h
01.05.2016 07:00 6,3 C 85 % 1014,2 hPa 0,4 l/m 0,0 km/h N-NO 4,0 C 6,3 C 0,0 km/h
01.05.2016 08:00 6,6 C 85 % 1014,8 hPa 0,0 l/m 0,0 km/h N-NO 4,3 C 6,6 C 0,0 km/h
01.05.2016 09:00 7,3 C 85 % 1015,4 hPa 0,0 l/m 0,0 km/h N-NO 4,9 C 7,3 C 0,0 km/h
01.05.2016 10:00 7,4 C 86 % 1015,8 hPa 0,0 l/m 0,0 km/h NO 5,2 C 7,4 C 0,0 km/h
01.05.2016 11:00 8,1 C 86 % 1016,4 hPa 0,0 l/m 0,0 km/h N-NO 5,9 C 8,1 C 0,0 km/h
01.05.2016 12:00 9,5 C 84 % 1016,9 hPa 0,0 l/m 11,0 km/h N-NO 6,9 C 6,5 C 6,1 km/h
01.05.2016 13:00 9,9 C 82 % 1017,2 hPa 0,0 l/m 0,0 km/h SO 7,0 C 9,9 C 0,0 km/h
01.05.2016 14:00 10,9 C 80 % 1017,7 hPa 0,0 l/m 0,0 km/h S-SO 7,6 C 10,9 C 0,0 km/h
01.05.2016 15:00 10,6 C 79 % 1017,9 hPa 0,0 l/m 0,0 km/h S-SO 7,1 C 10,6 C 0,0 km/h
01.05.2016 16:00 11,4 C 78 % 1017,9 hPa 0,0 l/m 0,0 km/h S-SO 7,7 C 11,4 C 0,0 km/h
01.05.2016 17:00 10,7 C 80 % 1017,9 hPa 0,0 l/m 1,3 km/h S-SO 7,4 C 10,7 C 0,7 km/h
01.05.2016 18:00 9,7 C 84 % 1018,2 hPa 0,4 l/m 0,0 km/h S-SO 7,1 C 9,7 C 0,0 km/h
01.05.2016 19:00 9,5 C 86 % 1018,7 hPa 0,0 l/m 0,0 km/h S 7,3 C 9,5 C 0,0 km/h
01.05.2016 20:00 9,1 C 86 % 1019,2 hPa 0,0 l/m 0,0 km/h NW 6,9 C 9,1 C 0,0 km/h
01.05.2016 21:00 8,3 C 86 % 1019,9 hPa 0,4 l/m 0,0 km/h N-NW 6,1 C 8,3 C 0,0 km/h
01.05.2016 22:00 8,2 C 86 % 1020,5 hPa 0,0 l/m 0,0 km/h N 6,0 C 8,2 C 0,0 km/h
01.05.2016 23:00 8,2 C 86 % 1020,3 hPa 0,0 l/m 0,0 km/h N 6,0 C 8,2 C 0,0 km/h
Min-Datum _ 28.04.16 29.04.16 26.04.16 - 25.04.16 - 28.04.16 27.04.16 25.04.16
_ Min-Zeit 03:41 17:41 09:41 - 00:41 - 03:41 04:41 00:41
Minimum _ -1,4 C 34 % 1002,4 hPa - 0,0 km/h - -3,4 C -8,2 C 0,0 km/h
Max-Datum _ 30.04.16 25.04.16 01.05.16 30.04.16 26.04.16 - 30.04.16 30.04.16 26.04.16
_ Max-Zeit 14:41 04:41 22:41 21:41 06:41 - 13:41 14:41 06:41
Maximum _ 21,9 C 87 % 1020,5 hPa 3,7 l/m 37,6 km/h
W-SW
- 8,3 C 21,7 C 20,9 km/h
W-SW
Durchschnitt _ 7,3 C 75 % 1011,8 hPa #27,3 l/m 5,1 km/h W 2,7 C 5,8 C 2,8 km/h
www.sexauwetter.de